Time;durP1;ratioP1;P1;durP2;ratioP2;P2;SDS_P1;SDS_P2;PMS_P1;PMS_P2;Temp;Humidity;BMP_temperature;BMP_pressure;BME280_temperature;BME280_humidity;BME280_pressure;Samples;Min_cycle;Max_cycle;Signal;HPM_P1;HPM_P2
2023/12/15 00:00:11;;;;;;;28.77;12.40;;;;;;;;;;5076629;28;20282;-33
2023/12/15 00:02:36;;;;;;;29.00;13.07;;;;;;;;;;5076402;28;20463;-32
2023/12/15 00:05:01;;;;;;;28.47;13.47;;;;;;;;;;5076242;28;20025;-32
2023/12/15 00:07:26;;;;;;;37.93;14.17;;;;;;;;;;5076726;28;20261;-37
2023/12/15 00:09:51;;;;;;;32.53;14.13;;;;;;;;;;5076442;28;20255;-33
2023/12/15 00:12:16;;;;;;;35.93;14.57;;;;;;;;;;5075953;28;20750;-32
2023/12/15 00:14:41;;;;;;;32.87;14.40;;;;;;;;;;5076064;28;20246;-33
2023/12/15 00:17:07;;;;;;;40.80;14.93;;;;;;;;;;5075985;28;20497;-32
2023/12/15 00:19:32;;;;;;;30.77;14.77;;;;;;;;;;5076032;28;20242;-32
2023/12/15 00:21:57;;;;;;;33.30;15.60;;;;;;;;;;5076523;28;20287;-32
2023/12/15 00:24:22;;;;;;;38.20;16.33;;;;;;;;;;5075858;28;20255;-32
2023/12/15 00:26:47;;;;;;;35.90;17.00;;;;;;;;;;5075759;28;20364;-33
2023/12/15 00:29:12;;;;;;;39.97;16.40;;;;;;;;;;5076356;28;20024;-33
2023/12/15 00:31:38;;;;;;;41.13;16.73;;;;;;;;;;5075632;28;20274;-32
2023/12/15 00:34:04;;;;;;;35.80;17.10;;;;;;;;;;5075945;28;20017;-32
2023/12/15 00:36:29;;;;;;;35.25;17.08;;;;;;;;;;5075603;28;20047;-32
2023/12/15 00:38:54;;;;;;;37.57;17.50;;;;;;;;;;5075919;28;20017;-33
2023/12/15 00:41:19;;;;;;;36.72;16.92;;;;;;;;;;5076137;28;20254;-32
2023/12/15 00:43:44;;;;;;;35.13;17.97;;;;;;;;;;5075821;28;20077;-32
2023/12/15 00:46:09;;;;;;;39.40;17.20;;;;;;;;;;5075472;28;20247;-33
2023/12/15 00:48:35;;;;;;;40.67;17.63;;;;;;;;;;5075474;28;20261;-33
2023/12/15 00:51:00;;;;;;;39.33;17.47;;;;;;;;;;5075991;28;20251;-32
2023/12/15 00:53:25;;;;;;;39.20;17.47;;;;;;;;;;5075323;28;20724;-33
2023/12/15 00:55:50;;;;;;;38.28;17.83;;;;;;;;;;5075268;28;20311;-33
2023/12/15 00:58:15;;;;;;;41.10;18.23;;;;;;;;;;5075857;28;20021;-32
2023/12/15 01:00:40;;;;;;;41.97;16.93;;;;;;;;;;5075405;28;20021;-33
2023/12/15 01:03:06;;;;;;;44.90;18.07;;;;;;;;;;5074881;28;20294;-33
2023/12/15 01:05:31;;;;;;;38.30;18.17;;;;;;;;;;5075144;28;20684;-33
2023/12/15 01:07:56;;;;;;;37.00;17.77;;;;;;;;;;5075057;28;20345;-31
2023/12/15 01:10:21;;;;;;;35.50;17.80;;;;;;;;;;5075265;28;20279;-32
2023/12/15 01:12:46;;;;;;;40.77;18.27;;;;;;;;;;5074362;28;20021;-33
2023/12/15 01:15:11;;;;;;;42.73;19.60;;;;;;;;;;5074895;28;20265;-33
2023/12/15 01:17:37;;;;;;;50.15;19.48;;;;;;;;;;5075164;28;20775;-32
2023/12/15 01:20:02;;;;;;;37.42;18.85;;;;;;;;;;5074666;28;20505;-33
2023/12/15 01:22:27;;;;;;;42.85;18.40;;;;;;;;;;5075308;28;20056;-32
2023/12/15 01:24:52;;;;;;;37.78;19.60;;;;;;;;;;5074710;28;20020;-32
2023/12/15 01:27:17;;;;;;;43.70;19.10;;;;;;;;;;5074665;28;20467;-32
2023/12/15 01:29:43;;;;;;;48.20;19.53;;;;;;;;;;5075154;28;20352;-32
2023/12/15 01:32:08;;;;;;;39.70;19.33;;;;;;;;;;5074712;28;20270;-33
2023/12/15 01:34:33;;;;;;;42.43;18.23;;;;;;;;;;5074565;28;20594;-32
2023/12/15 01:36:58;;;;;;;38.53;19.33;;;;;;;;;;5074493;28;20239;-32
2023/12/15 01:39:23;;;;;;;36.43;19.63;;;;;;;;;;5074446;28;20251;-32
2023/12/15 01:41:49;;;;;;;48.50;20.07;;;;;;;;;;5074599;28;20290;-32
2023/12/15 01:44:14;;;;;;;44.08;19.58;;;;;;;;;;5074334;28;20261;-32
2023/12/15 01:46:39;;;;;;;43.97;19.50;;;;;;;;;;5074333;28;20104;-32
2023/12/15 01:49:04;;;;;;;46.25;19.92;;;;;;;;;;5074431;28;20012;-32
2023/12/15 01:51:29;;;;;;;42.90;20.30;;;;;;;;;;5074096;28;20104;-33
2023/12/15 01:53:55;;;;;;;42.70;18.87;;;;;;;;;;5074712;28;20247;-32
2023/12/15 01:56:20;;;;;;;44.73;19.90;;;;;;;;;;5074503;28;20258;-33
2023/12/15 01:58:45;;;;;;;47.27;19.70;;;;;;;;;;5073979;28;20644;-33
2023/12/15 02:01:10;;;;;;;41.13;18.75;;;;;;;;;;5073991;28;20258;-33
2023/12/15 02:03:35;;;;;;;38.80;18.67;;;;;;;;;;5073843;28;20048;-32
2023/12/15 02:06:00;;;;;;;39.37;19.80;;;;;;;;;;5073520;28;20311;-33
2023/12/15 02:08:26;;;;;;;39.90;19.97;;;;;;;;;;5074479;28;20258;-33
2023/12/15 02:10:51;;;;;;;41.85;18.50;;;;;;;;;;5073756;28;20267;-32
2023/12/15 02:13:16;;;;;;;38.40;19.27;;;;;;;;;;5073712;28;20020;-32
2023/12/15 02:15:41;;;;;;;47.63;19.60;;;;;;;;;;5074016;28;20251;-32
2023/12/15 02:18:07;;;;;;;43.45;19.25;;;;;;;;;;5073724;28;20023;-32
2023/12/15 02:20:32;;;;;;;36.10;18.00;;;;;;;;;;5073698;28;20452;-32
2023/12/15 02:22:59;;;;;;;39.47;17.67;;;;;;;;;;5073562;28;20289;-32
2023/12/15 02:25:24;;;;;;;36.58;17.60;;;;;;;;;;5073430;28;20259;-32
2023/12/15 02:27:49;;;;;;;37.13;17.73;;;;;;;;;;5073561;28;20133;-33
2023/12/15 02:30:14;;;;;;;38.33;18.67;;;;;;;;;;5073848;28;20475;-32
2023/12/15 02:32:39;;;;;;;36.47;17.70;;;;;;;;;;5073959;28;20299;-32
2023/12/15 02:35:05;;;;;;;43.97;17.40;;;;;;;;;;5073582;28;20047;-32
2023/12/15 02:37:30;;;;;;;37.30;18.77;;;;;;;;;;5073504;28;20247;-33
2023/12/15 02:39:55;;;;;;;38.55;17.75;;;;;;;;;;5073994;28;20069;-33
2023/12/15 02:42:20;;;;;;;45.58;18.48;;;;;;;;;;5073757;28;20025;-32
2023/12/15 02:44:45;;;;;;;38.40;18.17;;;;;;;;;;5073584;28;20478;-32
2023/12/15 02:47:11;;;;;;;36.75;17.27;;;;;;;;;;5073943;28;20286;-32
2023/12/15 02:49:39;;;;;;;39.30;17.95;;;;;;;;;;5073389;28;20103;-32
2023/12/15 02:52:05;;;;;;;37.83;17.30;;;;;;;;;;5073573;28;20028;-32
2023/12/15 02:54:30;;;;;;;37.97;17.40;;;;;;;;;;5073325;28;20015;-32
2023/12/15 02:56:55;;;;;;;38.67;17.43;;;;;;;;;;5073337;28;20456;-32
2023/12/15 02:59:20;;;;;;;37.50;17.00;;;;;;;;;;5073815;28;20251;-32
2023/12/15 03:01:46;;;;;;;32.67;16.30;;;;;;;;;;5073382;28;20545;-31
2023/12/15 03:04:11;;;;;;;35.63;16.53;;;;;;;;;;5072006;28;20428;-32
2023/12/15 03:06:36;;;;;;;42.07;16.97;;;;;;;;;;5073535;28;20284;-32
2023/12/15 03:09:01;;;;;;;36.08;16.80;;;;;;;;;;5072942;28;20610;-32
2023/12/15 03:11:26;;;;;;;36.55;16.77;;;;;;;;;;5073253;28;20368;-31
2023/12/15 03:13:52;;;;;;;30.77;15.93;;;;;;;;;;5072678;28;20479;-31
2023/12/15 03:16:17;;;;;;;36.20;16.53;;;;;;;;;;5073329;28;20381;-33
2023/12/15 03:18:42;;;;;;;33.10;15.88;;;;;;;;;;5076960;28;20251;-32
2023/12/15 03:21:07;;;;;;;40.53;16.03;;;;;;;;;;5076965;28;20026;-32
2023/12/15 03:23:33;;;;;;;33.53;15.45;;;;;;;;;;5076848;28;20258;-32
2023/12/15 03:25:58;;;;;;;36.15;16.58;;;;;;;;;;5076793;28;20115;-31
2023/12/15 03:28:23;;;;;;;33.47;15.73;;;;;;;;;;5077120;28;20020;-33
2023/12/15 03:30:48;;;;;;;34.95;16.42;;;;;;;;;;5077273;28;20286;-33
2023/12/15 03:33:13;;;;;;;31.35;14.48;;;;;;;;;;5076535;28;20025;-32
2023/12/15 03:35:39;;;;;;;31.13;15.13;;;;;;;;;;5075043;28;20453;-33
2023/12/15 03:38:05;;;;;;;32.13;14.67;;;;;;;;;;5077333;28;20337;-33
2023/12/15 03:40:30;;;;;;;31.35;14.77;;;;;;;;;;5076966;28;20254;-32
2023/12/15 03:42:55;;;;;;;33.50;15.97;;;;;;;;;;5076969;28;20460;-33
2023/12/15 03:45:20;;;;;;;31.07;14.77;;;;;;;;;;5077156;28;20301;-32
2023/12/15 03:47:45;;;;;;;37.73;14.87;;;;;;;;;;5076486;28;20591;-33
2023/12/15 03:50:10;;;;;;;34.33;14.27;;;;;;;;;;5077065;28;20319;-32
2023/12/15 03:52:36;;;;;;;30.27;14.30;;;;;;;;;;5076405;28;20267;-32
2023/12/15 03:55:01;;;;;;;34.43;15.00;;;;;;;;;;5076411;28;20368;-32
2023/12/15 03:57:26;;;;;;;33.78;14.40;;;;;;;;;;5076681;28;20804;-32
2023/12/15 03:59:51;;;;;;;36.08;15.15;;;;;;;;;;5076860;28;20087;-33
2023/12/15 04:02:19;;;;;;;39.67;15.60;;;;;;;;;;5076234;28;20132;-32
2023/12/15 04:04:44;;;;;;;31.85;14.65;;;;;;;;;;5076251;28;20271;-33
2023/12/15 04:07:09;;;;;;;35.63;15.00;;;;;;;;;;5076756;28;20081;-32
2023/12/15 04:09:34;;;;;;;32.53;14.35;;;;;;;;;;5076136;28;20745;-32
2023/12/15 04:11:59;;;;;;;25.90;13.87;;;;;;;;;;5076250;28;20089;-32
2023/12/15 04:14:25;;;;;;;30.88;13.68;;;;;;;;;;5076102;28;20250;-32
2023/12/15 04:16:50;;;;;;;33.90;13.87;;;;;;;;;;5076023;28;20483;-33
2023/12/15 04:19:15;;;;;;;35.57;13.50;;;;;;;;;;5076510;28;20258;-32
2023/12/15 04:21:40;;;;;;;29.53;14.20;;;;;;;;;;5075944;28;20326;-32
2023/12/15 04:24:06;;;;;;;26.48;13.60;;;;;;;;;;5075961;28;20274;-32
2023/12/15 04:26:32;;;;;;;27.08;13.25;;;;;;;;;;5076175;28;20289;-33
2023/12/15 04:28:57;;;;;;;32.70;13.98;;;;;;;;;;5075486;28;20027;-33
2023/12/15 04:31:22;;;;;;;25.17;12.63;;;;;;;;;;5076311;28;20020;-33
2023/12/15 04:33:47;;;;;;;29.63;12.50;;;;;;;;;;5075697;28;20779;-32
2023/12/15 04:36:12;;;;;;;24.60;12.97;;;;;;;;;;5075713;28;20251;-32
2023/12/15 04:38:38;;;;;;;29.02;12.48;;;;;;;;;;5075629;28;20312;-32
2023/12/15 04:41:03;;;;;;;29.50;12.33;;;;;;;;;;5075626;28;20096;-33
2023/12/15 04:43:28;;;;;;;29.73;12.63;;;;;;;;;;5075806;28;20609;-32
2023/12/15 04:45:54;;;;;;;26.13;12.48;;;;;;;;;;5075755;28;20018;-32
2023/12/15 04:48:19;;;;;;;29.00;13.35;;;;;;;;;;5075449;28;20430;-32
2023/12/15 04:50:44;;;;;;;26.77;12.40;;;;;;;;;;5075976;28;20024;-32
2023/12/15 04:53:10;;;;;;;25.10;12.10;;;;;;;;;;5075310;28;20629;-32
2023/12/15 04:55:35;;;;;;;28.50;12.70;;;;;;;;;;5075861;28;20271;-32
2023/12/15 04:58:00;;;;;;;26.75;11.90;;;;;;;;;;5075317;28;20769;-33
2023/12/15 05:00:25;;;;;;;27.90;12.23;;;;;;;;;;5075502;28;20019;-32
2023/12/15 05:02:51;;;;;;;23.98;11.45;;;;;;;;;;5075112;28;20072;-32
2023/12/15 05:05:16;;;;;;;29.47;11.50;;;;;;;;;;5075152;28;20021;-32
2023/12/15 05:07:42;;;;;;;27.75;10.98;;;;;;;;;;5075567;28;20287;-33
2023/12/15 05:10:07;;;;;;;23.58;10.80;;;;;;;;;;5075034;28;20031;-32
2023/12/15 05:12:34;;;;;;;28.38;10.60;;;;;;;;;;5074891;28;20475;-32
2023/12/15 05:14:59;;;;;;;26.13;10.80;;;;;;;;;;5075158;28;20043;-32
2023/12/15 05:17:24;;;;;;;29.63;10.63;;;;;;;;;;5074899;28;20016;-33
2023/12/15 05:19:49;;;;;;;24.20;10.60;;;;;;;;;;5074830;28;20048;-32
2023/12/15 05:22:14;;;;;;;29.83;11.30;;;;;;;;;;5075380;28;20255;-33
2023/12/15 05:24:39;;;;;;;25.83;10.77;;;;;;;;;;5074980;28;20298;-33
2023/12/15 05:27:05;;;;;;;27.48;10.35;;;;;;;;;;5075127;28;20749;-32
2023/12/15 05:29:31;;;;;;;22.52;9.98;;;;;;;;;;5074595;28;20027;-32
2023/12/15 05:31:56;;;;;;;27.50;10.20;;;;;;;;;;5074499;28;20028;-32
2023/12/15 05:34:21;;;;;;;23.57;10.10;;;;;;;;;;5074536;28;20009;-33
2023/12/15 05:36:46;;;;;;;22.70;9.52;;;;;;;;;;5074473;28;20287;-32
2023/12/15 05:39:14;;;;;;;24.30;8.98;;;;;;;;;;5073778;28;20025;-32
2023/12/15 05:41:42;;;;;;;23.02;9.88;;;;;;;;;;5074852;28;20017;-32
2023/12/15 05:44:08;;;;;;;23.77;9.82;;;;;;;;;;5074365;28;20031;-33
2023/12/15 05:46:35;;;;;;;27.05;9.05;;;;;;;;;;5074797;28;20020;-32
2023/12/15 05:49:00;;;;;;;22.48;8.88;;;;;;;;;;5074493;28;20043;-33
2023/12/15 05:51:25;;;;;;;24.67;9.15;;;;;;;;;;5074194;28;20045;-32
2023/12/15 05:53:51;;;;;;;25.67;9.10;;;;;;;;;;5074615;28;20024;-32
2023/12/15 05:56:16;;;;;;;29.42;9.23;;;;;;;;;;5074791;28;20405;-33
2023/12/15 05:58:41;;;;;;;19.00;8.63;;;;;;;;;;5074075;28;20070;-33
2023/12/15 06:01:06;;;;;;;20.57;8.80;;;;;;;;;;5074018;28;20259;-33
2023/12/15 06:03:31;;;;;;;25.77;8.13;;;;;;;;;;5073825;28;20318;-32
2023/12/15 06:05:57;;;;;;;26.50;7.95;;;;;;;;;;5073926;28;20263;-32
2023/12/15 06:08:22;;;;;;;21.92;8.30;;;;;;;;;;5073255;28;20017;-33
2023/12/15 06:10:48;;;;;;;23.00;7.70;;;;;;;;;;5074450;28;20131;-32
2023/12/15 06:13:13;;;;;;;23.55;7.93;;;;;;;;;;5073669;28;20286;-33
2023/12/15 06:15:38;;;;;;;23.07;7.70;;;;;;;;;;5074288;28;20087;-33
2023/12/15 06:18:04;;;;;;;18.42;7.57;;;;;;;;;;5073543;28;20251;-32
2023/12/15 06:20:30;;;;;;;19.73;7.55;;;;;;;;;;5074211;28;20048;-32
2023/12/15 06:22:56;;;;;;;24.40;7.18;;;;;;;;;;5073612;28;20497;-32
2023/12/15 06:25:21;;;;;;;21.73;7.18;;;;;;;;;;5073814;28;20025;-32
2023/12/15 06:27:47;;;;;;;25.85;7.28;;;;;;;;;;5073819;28;20486;-31
2023/12/15 06:30:12;;;;;;;25.90;7.00;;;;;;;;;;5074025;28;20017;-31
2023/12/15 06:32:37;;;;;;;23.42;7.38;;;;;;;;;;5073327;28;20728;-32
2023/12/15 06:35:02;;;;;;;26.43;7.30;;;;;;;;;;5073514;28;20042;-32
2023/12/15 06:37:28;;;;;;;25.50;7.63;;;;;;;;;;5073376;28;20262;-32
2023/12/15 06:39:55;;;;;;;18.67;6.87;;;;;;;;;;5073699;28;20040;-32
2023/12/15 06:42:20;;;;;;;23.48;6.88;;;;;;;;;;5073746;28;20347;-32
2023/12/15 06:44:46;;;;;;;30.83;7.10;;;;;;;;;;5073158;28;20091;-33
2023/12/15 06:47:12;;;;;;;28.67;7.15;;;;;;;;;;5073632;28;20039;-33
2023/12/15 06:49:37;;;;;;;22.73;7.43;;;;;;;;;;5073620;28;20032;-33
2023/12/15 06:52:02;;;;;;;27.92;7.38;;;;;;;;;;5073427;28;20034;-32
2023/12/15 06:54:27;;;;;;;24.48;6.90;;;;;;;;;;5073357;28;20029;-33
2023/12/15 06:56:53;;;;;;;24.33;6.80;;;;;;;;;;5073552;28;20103;-32
2023/12/15 06:59:18;;;;;;;25.37;7.70;;;;;;;;;;5073554;28;20071;-31
2023/12/15 07:01:43;;;;;;;27.42;6.95;;;;;;;;;;5073270;28;20295;-31
2023/12/15 07:04:08;;;;;;;25.47;6.93;;;;;;;;;;5073188;28;20008;-32
2023/12/15 07:06:33;;;;;;;20.67;7.38;;;;;;;;;;5073038;28;20259;-31
2023/12/15 07:08:59;;;;;;;23.00;7.25;;;;;;;;;;5073403;28;20096;-32
2023/12/15 07:11:24;;;;;;;20.30;6.85;;;;;;;;;;5073021;28;20021;-33
2023/12/15 07:13:49;;;;;;;23.58;7.00;;;;;;;;;;5073583;28;20024;-31
2023/12/15 07:16:15;;;;;;;28.45;6.57;;;;;;;;;;5073026;28;20506;-32
2023/12/15 07:18:40;;;;;;;19.02;6.50;;;;;;;;;;5073252;28;20105;-31
2023/12/15 07:21:05;;;;;;;22.33;6.47;;;;;;;;;;5073051;28;20017;-31
2023/12/15 07:23:31;;;;;;;25.00;7.07;;;;;;;;;;5073512;28;20266;-33
2023/12/15 07:25:56;;;;;;;23.30;6.50;;;;;;;;;;5073559;28;20024;-33
2023/12/15 07:28:21;;;;;;;18.60;5.73;;;;;;;;;;5073505;28;20324;-31
2023/12/15 07:30:46;;;;;;;27.17;6.37;;;;;;;;;;5072939;28;20295;-33
2023/12/15 07:33:11;;;;;;;20.83;6.13;;;;;;;;;;5072827;28;20278;-32
2023/12/15 07:35:37;;;;;;;20.60;6.10;;;;;;;;;;5073479;28;20031;-32
2023/12/15 07:38:02;;;;;;;21.15;6.40;;;;;;;;;;5073185;28;20247;-32
2023/12/15 07:40:27;;;;;;;19.73;5.60;;;;;;;;;;5073160;28;20416;-32
2023/12/15 07:42:53;;;;;;;25.70;6.13;;;;;;;;;;5073049;28;20353;-32
2023/12/15 07:45:18;;;;;;;21.02;6.32;;;;;;;;;;5073025;28;20371;-32
2023/12/15 07:47:43;;;;;;;28.17;6.73;;;;;;;;;;5072795;28;20025;-32
2023/12/15 07:50:08;;;;;;;23.08;6.07;;;;;;;;;;5073073;28;20274;-32
2023/12/15 07:52:34;;;;;;;26.33;6.30;;;;;;;;;;5070527;28;20372;-32
2023/12/15 07:54:59;;;;;;;24.20;6.13;;;;;;;;;;5070595;28;20027;-32
2023/12/15 07:57:24;;;;;;;25.53;6.10;;;;;;;;;;5070496;28;20013;-32
2023/12/15 07:59:49;;;;;;;23.37;5.97;;;;;;;;;;5070502;28;20267;-32
2023/12/15 08:02:19;;;;;;;25.55;5.88;;;;;;;;;;5072157;28;20294;-31
2023/12/15 08:04:44;;;;;;;27.88;5.90;;;;;;;;;;5076509;28;20020;-32
2023/12/15 08:07:10;;;;;;;23.87;5.67;;;;;;;;;;5076346;28;20066;-33
2023/12/15 08:09:35;;;;;;;21.00;5.47;;;;;;;;;;5076773;28;20255;-31
2023/12/15 08:12:01;;;;;;;30.17;6.17;;;;;;;;;;5076210;28;20331;-32
2023/12/15 08:14:27;;;;;;;18.38;5.50;;;;;;;;;;5076373;28;20259;-33
2023/12/15 08:16:52;;;;;;;26.48;5.50;;;;;;;;;;5076620;28;20336;-32
2023/12/15 08:19:17;;;;;;;23.30;5.35;;;;;;;;;;5075971;28;20119;-33
2023/12/15 08:21:42;;;;;;;26.57;5.57;;;;;;;;;;5076493;28;20066;-32
2023/12/15 08:24:07;;;;;;;23.43;5.77;;;;;;;;;;5075958;28;20812;-31
2023/12/15 08:26:33;;;;;;;26.07;6.20;;;;;;;;;;5076187;28;20312;-32
2023/12/15 08:28:58;;;;;;;20.63;5.85;;;;;;;;;;5074497;28;20274;-32
2023/12/15 08:31:24;;;;;;;25.57;5.43;;;;;;;;;;5075786;28;20029;-32
2023/12/15 08:33:49;;;;;;;28.40;5.57;;;;;;;;;;5075671;28;20390;-32
2023/12/15 08:36:14;;;;;;;23.40;4.85;;;;;;;;;;5075724;28;20024;-32
2023/12/15 08:38:41;;;;;;;20.58;5.10;;;;;;;;;;5075633;28;20021;-32
2023/12/15 08:41:06;;;;;;;19.40;5.07;;;;;;;;;;5075979;28;20035;-32
2023/12/15 08:43:32;;;;;;;24.75;4.95;;;;;;;;;;5075751;28;20038;-32
2023/12/15 08:45:57;;;;;;;23.67;5.57;;;;;;;;;;5075509;28;20028;-32
2023/12/15 08:48:22;;;;;;;22.85;5.28;;;;;;;;;;5075456;28;20024;-31
2023/12/15 08:50:47;;;;;;;23.50;5.28;;;;;;;;;;5075261;28;20103;-32
2023/12/15 08:53:15;;;;;;;26.50;6.30;;;;;;;;;;5075764;28;20012;-32
2023/12/15 08:55:40;;;;;;;28.98;5.80;;;;;;;;;;5075180;28;20802;-32
2023/12/15 08:58:05;;;;;;;27.30;5.20;;;;;;;;;;5075254;28;20016;-32
2023/12/15 09:00:30;;;;;;;21.07;5.70;;;;;;;;;;5075771;28;20655;-32
2023/12/15 09:02:57;;;;;;;23.17;4.43;;;;;;;;;;5075377;28;20298;-33
2023/12/15 09:05:23;;;;;;;23.27;5.22;;;;;;;;;;5075445;28;20255;-31
2023/12/15 09:07:49;;;;;;;26.40;5.20;;;;;;;;;;5074952;28;20024;-32
2023/12/15 09:10:14;;;;;;;26.23;5.05;;;;;;;;;;5074954;28;20074;-32
2023/12/15 09:12:39;;;;;;;25.25;5.15;;;;;;;;;;5074992;28;20031;-32
2023/12/15 09:15:05;;;;;;;27.23;4.88;;;;;;;;;;5074009;28;20009;-33
2023/12/15 09:17:30;;;;;;;16.58;4.55;;;;;;;;;;5075101;28;20345;-32
2023/12/15 09:19:55;;;;;;;21.58;5.30;;;;;;;;;;5074733;28;20017;-31
2023/12/15 09:22:20;;;;;;;20.45;5.22;;;;;;;;;;5075007;28;20021;-33
2023/12/15 09:24:46;;;;;;;20.42;5.20;;;;;;;;;;5074906;28;20021;-33
2023/12/15 09:27:11;;;;;;;23.83;4.90;;;;;;;;;;5074908;28;20107;-31
2023/12/15 09:29:36;;;;;;;28.52;5.10;;;;;;;;;;5074598;28;20018;-33
2023/12/15 09:32:02;;;;;;;20.75;4.57;;;;;;;;;;5073222;28;20077;-32
2023/12/15 09:34:27;;;;;;;18.90;4.45;;;;;;;;;;5074808;28;20066;-32
2023/12/15 09:36:52;;;;;;;25.23;5.17;;;;;;;;;;5075037;28;20016;-32
2023/12/15 09:39:17;;;;;;;20.93;4.77;;;;;;;;;;5074821;28;20277;-33
2023/12/15 09:41:42;;;;;;;27.30;4.37;;;;;;;;;;5074376;28;20801;-32
2023/12/15 09:44:08;;;;;;;22.07;4.80;;;;;;;;;;5074882;28;20266;-32
2023/12/15 09:46:34;;;;;;;25.80;4.27;;;;;;;;;;5074282;28;20780;-32
2023/12/15 09:48:59;;;;;;;21.10;4.45;;;;;;;;;;5074335;28;20575;-32
2023/12/15 09:51:25;;;;;;;23.85;4.90;;;;;;;;;;5074390;28;20017;-32
2023/12/15 09:53:51;;;;;;;26.90;4.68;;;;;;;;;;5072733;28;20020;-32
2023/12/15 09:56:16;;;;;;;22.58;4.55;;;;;;;;;;5074283;28;20024;-32
2023/12/15 09:58:41;;;;;;;24.90;4.57;;;;;;;;;;5074078;28;20047;-32
2023/12/15 10:01:06;;;;;;;21.33;4.68;;;;;;;;;;5074185;28;20017;-32
2023/12/15 10:03:32;;;;;;;26.63;4.90;;;;;;;;;;5074850;28;20048;-33
2023/12/15 10:05:57;;;;;;;18.08;3.92;;;;;;;;;;5073979;28;20580;-33
2023/12/15 10:08:25;;;;;;;23.15;4.55;;;;;;;;;;5074181;28;20107;-33
2023/12/15 10:10:51;;;;;;;13.40;3.92;;;;;;;;;;5074482;28;20070;-32
2023/12/15 10:13:16;;;;;;;23.98;4.82;;;;;;;;;;5073663;28;20024;-32
2023/12/15 10:15:42;;;;;;;20.13;3.90;;;;;;;;;;5073745;28;20020;-32
2023/12/15 10:18:07;;;;;;;23.98;5.40;;;;;;;;;;5073887;28;20016;-32
2023/12/15 10:20:33;;;;;;;16.35;4.32;;;;;;;;;;5073750;28;20012;-32
2023/12/15 10:23:04;;;;;;;20.38;4.10;;;;;;;;;;5073985;28;20098;-32
2023/12/15 10:25:31;;;;;;;24.38;4.03;;;;;;;;;;5073661;28;20025;-32
2023/12/15 10:27:56;;;;;;;34.13;4.15;;;;;;;;;;5074179;28;20044;-32
2023/12/15 10:30:21;;;;;;;23.40;4.10;;;;;;;;;;5073685;28;20097;-32
2023/12/15 10:32:46;;;;;;;22.60;4.13;;;;;;;;;;5073823;28;20279;-32
2023/12/15 10:35:12;;;;;;;20.33;4.27;;;;;;;;;;5074185;28;20255;-31
2023/12/15 10:37:38;;;;;;;20.98;4.35;;;;;;;;;;5073818;28;20251;-33
2023/12/15 10:40:04;;;;;;;26.55;4.68;;;;;;;;;;5073672;28;20016;-32
2023/12/15 10:42:29;;;;;;;17.73;4.43;;;;;;;;;;5073536;28;20032;-32
2023/12/15 10:44:56;;;;;;;27.23;4.95;;;;;;;;;;5073717;28;20027;-32
2023/12/15 10:47:22;;;;;;;23.67;4.68;;;;;;;;;;5073473;28;20437;-33
2023/12/15 10:49:49;;;;;;;20.98;4.25;;;;;;;;;;5073392;28;20052;-32
2023/12/15 10:52:15;;;;;;;18.60;3.90;;;;;;;;;;5073270;28;20024;-31
2023/12/15 10:54:42;;;;;;;23.48;4.47;;;;;;;;;;5073727;28;20028;-32
2023/12/15 10:57:10;;;;;;;26.33;4.38;;;;;;;;;;5073470;28;20464;-32
2023/12/15 10:59:37;;;;;;;22.02;3.92;;;;;;;;;;5073788;28;20028;-32
2023/12/15 11:02:02;;;;;;;22.58;3.95;;;;;;;;;;5073391;28;20048;-31
2023/12/15 11:04:27;;;;;;;19.55;3.75;;;;;;;;;;5073516;28;20021;-32
2023/12/15 11:06:53;;;;;;;18.20;3.53;;;;;;;;;;5074153;28;20017;-32
2023/12/15 11:09:26;;;;;;;17.23;3.90;;;;;;;;;;5073402;28;20302;-32
2023/12/15 11:11:51;;;;;;;21.33;4.25;;;;;;;;;;5073295;28;20460;-33
2023/12/15 11:14:17;;;;;;;17.00;3.70;;;;;;;;;;5073350;28;20079;-32
2023/12/15 11:16:45;;;;;;;14.70;3.75;;;;;;;;;;5073728;28;20317;-32
2023/12/15 11:19:10;;;;;;;19.33;4.28;;;;;;;;;;5073758;28;20107;-33
2023/12/15 11:21:36;;;;;;;22.70;4.45;;;;;;;;;;5073235;28;20076;-32
2023/12/15 11:24:03;;;;;;;24.55;4.20;;;;;;;;;;5073614;28;20074;-32
2023/12/15 11:26:32;;;;;;;23.13;3.85;;;;;;;;;;5073347;28;20555;-33
2023/12/15 11:29:12;;;;;;;15.27;3.85;;;;;;;;;;5073156;28;20028;-32
2023/12/15 11:31:40;;;;;;;19.55;4.40;;;;;;;;;;5073261;28;20032;-32
2023/12/15 11:34:05;;;;;;;14.48;3.50;;;;;;;;;;5073261;28;20483;-32
2023/12/15 11:36:37;;;;;;;28.00;4.32;;;;;;;;;;5073220;28;20012;-33
2023/12/15 11:39:04;;;;;;;23.15;4.68;;;;;;;;;;5074402;28;20016;-33
2023/12/15 11:41:31;;;;;;;20.58;4.25;;;;;;;;;;5076861;28;20387;-32
2023/12/15 11:43:57;;;;;;;17.90;3.97;;;;;;;;;;5077761;28;20024;-32
2023/12/15 11:46:22;;;;;;;23.63;4.60;;;;;;;;;;5076595;28;20024;-32
2023/12/15 11:48:47;;;;;;;19.95;3.50;;;;;;;;;;5076532;28;20378;-32
2023/12/15 11:51:14;;;;;;;17.88;4.28;;;;;;;;;;5076699;28;20033;-32
2023/12/15 11:53:47;;;;;;;19.70;4.57;;;;;;;;;;5076359;28;20062;-32
2023/12/15 11:56:12;;;;;;;16.10;3.22;;;;;;;;;;5076404;28;20047;-32
2023/12/15 11:58:37;;;;;;;18.83;3.87;;;;;;;;;;5076312;28;20052;-32
2023/12/15 12:01:03;;;;;;;19.63;4.38;;;;;;;;;;5076366;28;20601;-31
2023/12/15 12:03:31;;;;;;;18.35;3.58;;;;;;;;;;5076183;28;20131;-32
2023/12/15 12:05:58;;;;;;;19.05;3.40;;;;;;;;;;5076173;28;20056;-32
2023/12/15 12:08:23;;;;;;;20.58;3.83;;;;;;;;;;5076527;28;20371;-32
2023/12/15 12:10:58;;;;;;;16.33;3.72;;;;;;;;;;5076734;28;20027;-32
2023/12/15 12:13:30;;;;;;;16.65;3.30;;;;;;;;;;5075999;28;20029;-32
2023/12/15 12:15:55;;;;;;;20.20;3.38;;;;;;;;;;5076732;28;20044;-32
2023/12/15 12:18:20;;;;;;;21.70;3.47;;;;;;;;;;5076040;28;20475;-31
2023/12/15 12:20:46;;;;;;;17.02;2.88;;;;;;;;;;5076351;28;20070;-32
2023/12/15 12:23:12;;;;;;;20.48;3.60;;;;;;;;;;5076209;28;20025;-32
2023/12/15 12:25:40;;;;;;;21.73;3.38;;;;;;;;;;5076170;28;20146;-33
2023/12/15 12:28:06;;;;;;;16.23;2.88;;;;;;;;;;5075814;28;20021;-33
2023/12/15 12:30:31;;;;;;;22.37;3.30;;;;;;;;;;5075820;28;20021;-32
2023/12/15 12:32:56;;;;;;;22.25;4.07;;;;;;;;;;5075588;28;20032;-32
2023/12/15 12:35:21;;;;;;;22.10;3.50;;;;;;;;;;5075696;28;20021;-32
2023/12/15 12:37:48;;;;;;;18.88;3.53;;;;;;;;;;5076148;28;20251;-32
2023/12/15 12:40:13;;;;;;;16.95;3.53;;;;;;;;;;5076223;28;20017;-33
2023/12/15 12:42:38;;;;;;;20.53;4.00;;;;;;;;;;5075653;28;20028;-32
2023/12/15 12:45:03;;;;;;;18.80;3.93;;;;;;;;;;5075364;28;20267;-31
2023/12/15 12:47:29;;;;;;;13.40;2.90;;;;;;;;;;5075467;28;20373;-37
2023/12/15 12:49:54;;;;;;;20.40;3.30;;;;;;;;;;5075472;28;20013;-32
2023/12/15 12:52:19;;;;;;;19.23;3.38;;;;;;;;;;5075855;28;20388;-32
2023/12/15 12:54:44;;;;;;;18.33;3.07;;;;;;;;;;5075414;28;20324;-32
2023/12/15 12:57:09;;;;;;;17.80;3.20;;;;;;;;;;5075384;28;20342;-33
2023/12/15 12:59:35;;;;;;;14.98;3.03;;;;;;;;;;5075373;28;20315;-32
2023/12/15 13:02:00;;;;;;;11.82;2.83;;;;;;;;;;5075149;28;20059;-32
2023/12/15 13:04:26;;;;;;;17.42;3.03;;;;;;;;;;5075237;28;20148;-32
2023/12/15 13:06:52;;;;;;;22.48;3.53;;;;;;;;;;5075201;28;20016;-32
2023/12/15 13:09:18;;;;;;;22.15;3.13;;;;;;;;;;5074930;28;20020;-31
2023/12/15 13:11:49;;;;;;;13.05;2.80;;;;;;;;;;5075103;28;20020;-33
2023/12/15 13:14:15;;;;;;;15.25;2.95;;;;;;;;;;5074938;28;20027;-32
2023/12/15 13:16:40;;;;;;;13.63;2.90;;;;;;;;;;5074830;28;20099;-32
2023/12/15 13:19:06;;;;;;;17.98;3.70;;;;;;;;;;5074988;28;20031;-33
2023/12/15 13:21:31;;;;;;;18.20;3.05;;;;;;;;;;5074847;28;20012;-32
2023/12/15 13:23:56;;;;;;;18.52;3.28;;;;;;;;;;5074579;28;20051;-32
2023/12/15 13:26:22;;;;;;;15.13;2.73;;;;;;;;;;5074486;28;20074;-32
2023/12/15 13:28:47;;;;;;;15.85;2.80;;;;;;;;;;5074666;28;20016;-31
2023/12/15 13:31:12;;;;;;;20.03;3.33;;;;;;;;;;5075075;28;20052;-32
2023/12/15 13:33:39;;;;;;;15.87;3.03;;;;;;;;;;5074434;28;20344;-32
2023/12/15 13:36:04;;;;;;;19.92;3.45;;;;;;;;;;5074489;28;20147;-33
2023/12/15 13:38:29;;;;;;;15.73;3.17;;;;;;;;;;5074470;28;20036;-32
2023/12/15 13:40:56;;;;;;;13.93;2.93;;;;;;;;;;5074430;28;20068;-31
2023/12/15 13:43:21;;;;;;;15.20;2.67;;;;;;;;;;5074262;28;20749;-31
2023/12/15 13:45:46;;;;;;;21.55;4.18;;;;;;;;;;5074306;28;20012;-36
2023/12/15 13:48:12;;;;;;;24.63;3.83;;;;;;;;;;5074538;28;20114;-31
2023/12/15 13:50:37;;;;;;;20.02;3.30;;;;;;;;;;5072935;28;20269;-32
2023/12/15 13:53:05;;;;;;;16.10;2.93;;;;;;;;;;5072752;28;20054;-32
2023/12/15 13:55:30;;;;;;;17.63;3.10;;;;;;;;;;5074148;28;20494;-32
2023/12/15 13:57:56;;;;;;;16.50;2.90;;;;;;;;;;5073863;28;20052;-32
2023/12/15 14:00:24;;;;;;;19.77;2.97;;;;;;;;;;5073183;28;20360;-32
2023/12/15 14:02:50;;;;;;;17.38;3.00;;;;;;;;;;5073641;28;20286;-32
2023/12/15 14:05:15;;;;;;;19.20;4.32;;;;;;;;;;5073783;28;20024;-32
2023/12/15 14:07:40;;;;;;;17.05;3.15;;;;;;;;;;5073935;28;20050;-32
2023/12/15 14:10:06;;;;;;;17.10;2.90;;;;;;;;;;5074346;28;20032;-31
2023/12/15 14:12:34;;;;;;;16.42;2.63;;;;;;;;;;5073589;28;20286;-32
2023/12/15 14:14:59;;;;;;;11.75;2.40;;;;;;;;;;5074238;28;20016;-32